This is the latest recevied weather packets stored in our database for station/object N5TDX. If no packets are shown the sender has not sent any weather packets the latest 1 day(s).
| Time | Temp. | Humidity | Pressure | Rain* | Wind** | Luminosity | Snow |
|---|---|---|---|---|---|---|---|
| 1778018071 | 32.78° C | 39% | 1000.8 hPa | 0 mm | 1.34 m/s, 228° | - | - |
| 1778017769 | 32.78° C | 40% | 1000.9 hPa | 0 mm | 0.89 m/s, 214° | - | - |
| 1778017466 | 33.33° C | 39% | 1001 hPa | 0 mm | 0.45 m/s, 224° | - | - |
| 1778017164 | 33.33° C | 40% | 1000.9 hPa | 0 mm | 0 m/s | - | - |
| 1778016861 | 33.33° C | 38% | 1001 hPa | 0 mm | 0.45 m/s, 300° | - | - |
| 1778016557 | 33.33° C | 40% | 1000.7 hPa | 0 mm | 0.45 m/s, 8° | - | - |
| 1778016254 | 32.78° C | 40% | 1001.1 hPa | 0 mm | 0.89 m/s, 267° | - | - |
| 1778015951 | 32.78° C | 39% | 1001.1 hPa | 0 mm | 0.89 m/s, 277° | - | - |
| 1778015648 | 32.78° C | 41% | 1001.2 hPa | 0 mm | 0.89 m/s, 218° | - | - |
| 1778015344 | 33.33° C | 39% | 1001.2 hPa | 0 mm | 1.34 m/s, 277° | - | - |
| 1778015042 | 32.78° C | 38% | 1001.3 hPa | 0 mm | 0.45 m/s, 263° | - | - |
| 1778014738 | 32.78° C | 39% | 1001.2 hPa | 0 mm | 0.89 m/s, 235° | - | - |
| 1778014437 | 32.78° C | 40% | 1001.3 hPa | 0 mm | 0.45 m/s, 248° | - | - |
| 1778014133 | 32.78° C | 38% | 1001.6 hPa | 0 mm | 0.89 m/s, 334° | - | - |
| 1778013831 | 32.78° C | 40% | 1001.5 hPa | 0 mm | 1.79 m/s, 197° | - | - |
| 1778013528 | 32.78° C | 43% | 1001.7 hPa | 0 mm | 0.45 m/s, 308° | - | - |
| 1778013224 | 32.78° C | 45% | 1001.7 hPa | 0 mm | 0 m/s | - | - |
| 1778012921 | 32.78° C | 46% | 1001.8 hPa | 0 mm | 0.45 m/s, 220° | - | - |
| 1778012617 | 32.78° C | 45% | 1001.8 hPa | 0 mm | 0.45 m/s, 215° | - | - |
| 1778012314 | 32.22° C | 46% | 1001.8 hPa | 0 mm | 1.34 m/s, 212° | - | - |
| 1778012012 | 32.22° C | 46% | 1001.9 hPa | 0 mm | 0.89 m/s, 242° | - | - |
| 1778011710 | 32.22° C | 45% | 1001.9 hPa | 0 mm | 1.34 m/s, 225° | - | - |
| 1778011406 | 32.22° C | 45% | 1002 hPa | 0 mm | 1.79 m/s, 252° | - | - |
| 1778011102 | 32.22° C | 46% | 1001.9 hPa | 0 mm | 1.79 m/s, 218° | - | - |
| 1778010799 | 32.22° C | 45% | 1002.1 hPa | 0 mm | 0.89 m/s, 247° | - | - |
* Rain latest hour (hover to see other rain measurements)
** Current wind speed in m/s (hover to see current wind gust speed)